Time;durP1;ratioP1;P1;durP2;ratioP2;P2;SDS_P1;SDS_P2;PMS_P1;PMS_P2;Temp;Humidity;BMP_temperature;BMP_pressure;BME280_temperature;BME280_humidity;BME280_pressure;Samples;Min_cycle;Max_cycle;Signal;HPM_P1;HPM_P2
2023/09/27 00:00:09;;;;;;;9.30;8.00;;;;;;;15.15;100.00;102152.09;4970309;28;20177;-76
2023/09/27 00:02:35;;;;;;;9.00;8.10;;;;;;;14.47;100.00;102067.19;4981380;28;20239;-76
2023/09/27 00:05:02;;;;;;;11.10;8.60;;;;;;;14.93;100.00;102131.59;4984315;28;20442;-77
2023/09/27 00:07:28;;;;;;;11.53;9.33;;;;;;;14.71;100.00;102079.47;4968001;28;21014;-76
2023/09/27 00:09:53;;;;;;;9.97;8.93;;;;;;;15.15;100.00;102146.69;4968963;28;20474;-77
2023/09/27 00:12:19;;;;;;;12.90;11.03;;;;;;;14.54;100.00;102061.88;4969014;28;20194;-76
2023/09/27 00:14:44;;;;;;;13.63;11.47;;;;;;;15.21;100.00;102184.78;4969937;28;20274;-77
2023/09/27 00:17:11;;;;;;;13.47;11.00;;;;;;;15.13;100.00;102186.63;4983521;28;20180;-77
2023/09/27 00:19:36;;;;;;;12.53;10.93;;;;;;;15.22;100.00;102211.63;4970589;28;20233;-76
2023/09/27 00:22:02;;;;;;;15.60;12.60;;;;;;;14.44;100.00;102081.91;4966142;28;20465;-76
2023/09/27 00:24:27;;;;;;;13.60;11.93;;;;;;;15.27;100.00;102229.94;4968988;28;20221;-76
2023/09/27 00:26:54;;;;;;;12.97;11.20;;;;;;;15.04;100.00;102233.72;4969512;28;20624;-76
2023/09/27 00:29:19;;;;;;;14.80;11.47;;;;;;;15.31;100.00;102277.19;4967973;28;20207;-76
2023/09/27 00:31:45;;;;;;;15.00;12.00;;;;;;;15.37;100.00;102306.16;4970230;28;20461;-75
2023/09/27 00:34:10;;;;;;;19.50;13.50;;;;;;;14.56;100.00;102225.34;4969169;28;20654;-76
2023/09/27 00:36:36;;;;;;;14.20;12.30;;;;;;;15.31;100.00;102374.50;4967417;28;20190;-76
2023/09/27 00:39:01;;;;;;;13.83;12.27;;;;;;;15.17;100.00;102351.09;4983221;28;20186;-77
2023/09/27 00:41:26;;;;;;;14.23;12.73;;;;;;;14.82;100.00;102310.41;4967980;28;20201;-76
2023/09/27 00:43:52;;;;;;;18.53;13.43;;;;;;;14.94;100.00;102316.13;4968585;28;20188;-76
2023/09/27 00:46:19;;;;;;;16.67;13.20;;;;;;;14.63;100.00;102287.53;4969512;28;20269;-77
2023/09/27 00:48:45;;;;;;;16.10;13.83;;;;;;;14.89;100.00;102320.22;4968792;28;20214;-75
2023/09/27 00:51:12;;;;;;;18.40;14.20;;;;;;;14.81;100.00;102300.59;4969806;28;20437;-76
2023/09/27 00:53:39;;;;;;;15.40;13.50;;;;;;;14.80;100.00;102315.13;4968304;28;20880;-77
2023/09/27 00:56:04;;;;;;;15.57;13.00;;;;;;;14.67;100.00;102286.13;4965858;28;20446;-76
2023/09/27 00:58:34;;;;;;;15.30;13.43;;;;;;;14.76;100.00;102321.97;4968504;28;20433;-76
2023/09/27 01:01:00;;;;;;;13.83;12.30;;;;;;;14.85;100.00;102355.94;4969371;28;20186;-76
2023/09/27 01:03:25;;;;;;;15.20;12.57;;;;;;;15.23;100.00;102409.78;4967059;28;20457;-76
2023/09/27 01:05:51;;;;;;;16.10;12.73;;;;;;;14.81;100.00;102351.91;4968203;28;20261;-77
2023/09/27 01:08:16;;;;;;;17.07;13.70;;;;;;;15.03;100.00;102417.66;4966455;28;20186;-76
2023/09/27 01:10:44;;;;;;;17.50;15.20;;;;;;;15.61;100.00;102507.72;4965872;28;20190;-77
2023/09/27 01:13:09;;;;;;;16.43;14.70;;;;;;;15.57;100.00;102528.91;4982824;28;20206;-76
2023/09/27 01:15:35;;;;;;;15.93;14.23;;;;;;;15.34;100.00;102502.03;4966548;28;20455;-77
2023/09/27 01:18:02;;;;;;;16.97;15.17;;;;;;;15.52;100.00;102542.16;4968198;28;20190;-76
2023/09/27 01:20:29;;;;;;;15.07;13.47;;;;;;;15.49;100.00;102547.13;4967722;28;20838;-76
2023/09/27 01:23:02;;;;;;;17.20;14.63;;;;;;;14.76;100.00;102424.59;4984590;28;20883;-76
2023/09/27 01:25:32;;;;;;;16.73;14.10;;;;;;;14.87;100.00;102440.34;4967572;28;20442;-76
2023/09/27 01:28:01;;;;;;;16.97;13.83;;;;;;;14.82;100.00;102427.38;4969441;28;20441;-76
2023/09/27 01:30:33;;;;;;;18.20;15.17;;;;;;;14.94;100.00;102454.75;4967143;28;20469;-76
2023/09/27 01:33:06;;;;;;;18.17;15.10;;;;;;;15.19;100.00;102476.03;4967326;28;20466;-77
2023/09/27 01:35:38;;;;;;;16.00;14.27;;;;;;;14.80;100.00;102406.97;4969656;28;20930;-77
2023/09/27 01:38:05;;;;;;;19.30;15.73;;;;;;;15.39;100.00;102528.50;4967914;28;20446;-76
2023/09/27 01:40:31;;;;;;;18.00;16.00;;;;;;;15.33;100.00;102513.00;4968531;28;20446;-76
2023/09/27 01:43:01;;;;;;;18.07;14.87;;;;;;;15.43;100.00;102524.38;4967027;28;20535;-76
2023/09/27 01:45:29;;;;;;;17.13;15.33;;;;;;;15.21;100.00;102491.03;4968054;28;20520;-77
2023/09/27 01:47:54;;;;;;;17.93;13.90;;;;;;;15.03;100.00;102440.09;4965932;28;20438;-76
2023/09/27 01:50:21;;;;;;;17.80;15.70;;;;;;;15.36;100.00;102491.00;4968177;28;21137;-77
2023/09/27 01:52:47;;;;;;;16.07;13.80;;;;;;;15.34;100.00;102495.78;4981588;28;20305;-76
2023/09/27 01:55:13;;;;;;;16.23;14.30;;;;;;;14.53;100.00;102362.59;4967657;28;20533;-76
2023/09/27 01:57:38;;;;;;;17.70;15.87;;;;;;;14.36;100.00;102307.94;4967563;28;21091;-76
2023/09/27 02:00:11;;;;;;;17.27;15.57;;;;;;;14.85;100.00;102372.13;4967188;28;20659;-76
2023/09/27 02:02:40;;;;;;;16.87;15.17;;;;;;;14.38;100.00;102250.03;4964806;28;21051;-75
2023/09/27 02:05:06;;;;;;;15.63;14.03;;;;;;;14.34;100.00;102220.91;4967366;28;22248;-76
2023/09/27 02:07:31;;;;;;;18.60;16.40;;;;;;;14.29;100.00;102182.84;4966105;28;20442;-76
2023/09/27 02:09:57;;;;;;;18.40;16.27;;;;;;;15.03;100.00;102290.66;4967875;28;20512;-76
2023/09/27 02:12:22;;;;;;;18.57;16.63;;;;;;;15.01;100.00;102263.81;4966146;28;20201;-76
2023/09/27 02:14:48;;;;;;;19.83;16.93;;;;;;;14.36;100.00;102132.50;4967453;28;20253;-77
2023/09/27 02:17:13;;;;;;;20.30;17.90;;;;;;;14.22;100.00;102083.78;4966986;28;20197;-76
2023/09/27 02:19:39;;;;;;;22.27;16.43;;;;;;;14.99;100.00;102211.84;4964907;28;20195;-76
2023/09/27 02:22:06;;;;;;;18.83;16.20;;;;;;;14.17;100.00;102058.41;4965094;28;20202;-76
2023/09/27 02:24:31;;;;;;;18.57;16.57;;;;;;;14.50;100.00;102123.50;4964373;28;20968;-76
2023/09/27 02:26:57;;;;;;;19.20;16.00;;;;;;;14.97;100.00;102213.06;4981529;28;20440;-76
2023/09/27 02:29:23;;;;;;;24.20;16.50;;;;;;;14.55;100.00;102109.44;4966270;28;20206;-76
2023/09/27 02:31:48;;;;;;;18.30;16.40;;;;;;;14.94;100.00;102175.63;4968006;28;20230;-76
2023/09/27 02:34:13;;;;;;;21.67;18.27;;;;;;;13.98;100.00;102032.91;4965931;28;20199;-77
2023/09/27 02:36:40;;;;;;;19.63;17.53;;;;;;;14.39;100.00;102097.84;4965139;28;20285;-77
2023/09/27 02:39:05;;;;;;;18.30;15.93;;;;;;;14.92;100.00;102127.19;4980638;28;20553;-76
2023/09/27 02:41:31;;;;;;;19.87;17.70;;;;;;;14.86;100.00;102136.91;4965779;28;20448;-76
2023/09/27 02:43:56;;;;;;;19.50;17.00;;;;;;;14.13;100.00;101995.91;4967866;28;20198;-77
2023/09/27 02:46:22;;;;;;;18.33;15.60;;;;;;;13.98;100.00;101958.22;4968161;28;20182;-76
2023/09/27 02:48:47;;;;;;;18.83;15.97;;;;;;;13.65;100.00;101886.94;4965069;28;20214;-76
2023/09/27 02:51:16;;;;;;;21.60;16.30;;;;;;;14.46;100.00;102033.13;4967061;28;20186;-76
2023/09/27 02:53:42;;;;;;;17.00;15.17;;;;;;;14.71;100.00;102070.53;4980254;28;20207;-76
2023/09/27 02:56:08;;;;;;;18.60;16.13;;;;;;;14.52;100.00;102048.56;4965898;28;20521;-76
2023/09/27 02:58:34;;;;;;;21.43;17.23;;;;;;;14.34;100.00;102032.81;4965709;28;20567;-76
2023/09/27 03:01:00;;;;;;;20.87;18.57;;;;;;;14.59;100.00;102060.25;4966351;28;21050;-76
2023/09/27 03:03:26;;;;;;;20.70;18.37;;;;;;;14.21;100.00;102005.72;4965811;28;20472;-76
2023/09/27 03:05:52;;;;;;;18.30;16.23;;;;;;;13.86;100.00;101924.69;4967014;28;20718;-77
2023/09/27 03:08:17;;;;;;;24.03;17.33;;;;;;;14.04;100.00;101975.47;4968241;28;20477;-76
2023/09/27 03:10:43;;;;;;;19.97;17.03;;;;;;;14.42;100.00;102011.06;4979369;28;20876;-77
2023/09/27 03:13:09;;;;;;;19.20;17.00;;;;;;;13.44;100.00;101869.75;4966760;28;20546;-77
2023/09/27 03:15:38;;;;;;;20.47;18.27;;;;;;;14.16;100.00;101968.53;4966244;28;20190;-77
2023/09/27 03:18:04;;;;;;;21.37;17.63;;;;;;;13.68;100.00;101883.88;4967955;28;20441;-77
2023/09/27 03:20:31;;;;;;;18.98;16.98;;;;;;;14.01;100.00;101949.72;4965391;28;20492;-76
2023/09/27 03:22:56;;;;;;;18.67;15.33;;;;;;;14.36;100.00;101989.44;4982392;28;20608;-76
2023/09/27 03:25:22;;;;;;;19.20;17.07;;;;;;;13.70;100.00;101879.94;4971611;28;20449;-76
2023/09/27 03:27:48;;;;;;;20.33;18.10;;;;;;;13.61;100.00;101839.84;4970521;28;20275;-76
2023/09/27 03:30:14;;;;;;;18.87;16.93;;;;;;;13.55;100.00;101898.91;4970837;28;20206;-77
2023/09/27 03:32:39;;;;;;;18.07;16.23;;;;;;;13.89;100.00;101904.59;4969290;28;20286;-76
2023/09/27 03:35:07;;;;;;;18.90;16.90;;;;;;;13.73;100.00;101903.81;4987430;28;20449;-76
2023/09/27 03:37:33;;;;;;;23.17;19.50;;;;;;;14.25;100.00;101988.09;4984372;28;20186;-76
2023/09/27 03:39:59;;;;;;;24.13;18.70;;;;;;;13.64;100.00;101896.91;4971428;28;20484;-77
2023/09/27 03:42:24;;;;;;;21.70;18.67;;;;;;;13.52;100.00;101883.13;4969157;28;20480;-76
2023/09/27 03:44:50;;;;;;;20.87;18.70;;;;;;;13.28;100.00;101872.72;4970571;28;20960;-77
2023/09/27 03:47:15;;;;;;;19.80;17.10;;;;;;;14.33;100.00;101998.75;4971374;28;20193;-76
2023/09/27 03:49:41;;;;;;;28.90;18.83;;;;;;;13.50;100.00;101887.84;4971329;28;20507;-76
2023/09/27 03:52:08;;;;;;;21.20;18.80;;;;;;;13.55;100.00;101876.50;4971053;28;20681;-76
2023/09/27 03:54:33;;;;;;;21.90;18.27;;;;;;;14.10;100.00;101977.41;4968493;28;20222;-76
2023/09/27 03:56:59;;;;;;;20.97;18.83;;;;;;;14.07;100.00;101958.06;4969487;28;20860;-75
2023/09/27 03:59:24;;;;;;;21.30;18.63;;;;;;;13.55;100.00;101869.25;4970596;28;20186;-77
2023/09/27 04:01:51;;;;;;;24.27;19.63;;;;;;;13.60;100.00;101884.00;4971230;28;20233;-76
2023/09/27 04:04:17;;;;;;;21.77;18.10;;;;;;;13.59;100.00;101918.22;4967897;28;20182;-76
2023/09/27 04:06:43;;;;;;;19.97;17.70;;;;;;;13.96;100.00;101967.50;4965927;28;20509;-76
2023/09/27 04:09:09;;;;;;;22.00;18.20;;;;;;;13.79;100.00;101938.09;4971299;28;20466;-77
2023/09/27 04:11:35;;;;;;;22.97;17.73;;;;;;;13.70;100.00;101911.47;4969198;28;20186;-77
2023/09/27 04:14:00;;;;;;;19.10;16.57;;;;;;;14.22;100.00;101994.72;4984396;28;20976;-77
2023/09/27 04:16:30;;;;;;;20.20;17.33;;;;;;;13.77;100.00;101983.31;4970610;28;20522;-76
2023/09/27 04:18:59;;;;;;;19.70;16.60;;;;;;;14.13;100.00;102024.75;4970201;28;20769;-77
2023/09/27 04:21:25;;;;;;;19.57;16.13;;;;;;;13.78;100.00;101970.66;4967466;28;20445;-76
2023/09/27 04:23:59;;;;;;;19.80;17.67;;;;;;;13.70;100.00;101949.22;4967811;28;20448;-77
2023/09/27 04:26:25;;;;;;;22.03;16.93;;;;;;;14.35;100.00;102053.41;4983061;28;20533;-76
2023/09/27 04:28:52;;;;;;;19.70;15.90;;;;;;;13.86;100.00;101972.41;4980008;28;20462;-77
2023/09/27 04:31:17;;;;;;;18.13;16.20;;;;;;;14.18;100.00;102052.00;4982124;28;20437;-76
2023/09/27 04:33:44;;;;;;;22.33;17.03;;;;;;;13.34;100.00;101913.19;4966071;28;20457;-76
2023/09/27 04:36:19;;;;;;;21.60;17.20;;;;;;;13.92;100.00;101996.75;4969635;28;20186;-76
2023/09/27 04:38:45;;;;;;;20.67;16.90;;;;;;;13.64;100.00;101948.13;4970600;28;20443;-77
2023/09/27 04:41:12;;;;;;;19.23;15.07;;;;;;;13.73;100.00;101967.72;4966387;28;20508;-77
2023/09/27 04:43:37;;;;;;;17.50;15.60;;;;;;;13.29;100.00;101921.00;4982704;28;20469;-77
2023/09/27 04:46:03;;;;;;;18.03;15.93;;;;;;;14.25;100.00;102064.50;4968042;28;20604;-77
2023/09/27 04:48:29;;;;;;;20.13;16.47;;;;;;;14.18;100.00;102062.78;4966911;28;20186;-77
2023/09/27 04:50:57;;;;;;;19.40;17.20;;;;;;;14.20;100.00;102068.78;4969235;28;20187;-77
2023/09/27 04:53:23;;;;;;;19.83;15.90;;;;;;;13.47;100.00;101985.25;4965368;28;20971;-77
2023/09/27 04:55:48;;;;;;;18.63;16.63;;;;;;;13.29;100.00;101952.53;4968560;28;20503;-76
2023/09/27 04:58:14;;;;;;;18.43;16.30;;;;;;;13.84;100.00;102026.53;4964663;28;20208;-77
2023/09/27 05:00:39;;;;;;;18.73;16.50;;;;;;;12.87;100.00;101876.78;4966623;28;20194;-77
2023/09/27 05:03:05;;;;;;;20.57;18.37;;;;;;;13.11;100.00;101899.84;4968575;28;20229;-76
2023/09/27 05:05:31;;;;;;;22.97;18.77;;;;;;;12.98;100.00;101867.38;4963256;28;20197;-77
2023/09/27 05:07:56;;;;;;;18.37;16.40;;;;;;;13.41;100.00;101924.03;4968518;28;20253;-77
2023/09/27 05:10:21;;;;;;;18.17;15.63;;;;;;;13.92;100.00;102025.59;4966923;28;20215;-77
2023/09/27 05:12:47;;;;;;;19.73;15.87;;;;;;;13.33;100.00;101908.81;4982230;28;20294;-77
2023/09/27 05:15:13;;;;;;;17.90;16.00;;;;;;;12.94;100.00;101867.97;4968358;28;20336;-77
2023/09/27 05:17:38;;;;;;;16.47;13.97;;;;;;;13.84;100.00;102017.59;4966053;28;20581;-77
2023/09/27 05:20:10;;;;;;;19.17;16.50;;;;;;;13.43;100.00;101950.81;4966717;28;20198;-77
2023/09/27 05:22:37;;;;;;;23.37;18.43;;;;;;;12.99;100.00;101909.47;4967865;28;20300;-77
2023/09/27 05:25:03;;;;;;;20.23;18.13;;;;;;;13.09;100.00;101906.44;4969784;28;20449;-77
2023/09/27 05:27:29;;;;;;;25.83;19.90;;;;;;;13.60;100.00;101999.91;4966992;28;20807;-77
2023/09/27 05:29:55;;;;;;;20.23;17.80;;;;;;;13.07;100.00;101903.94;4968585;28;20476;-77
2023/09/27 05:32:20;;;;;;;20.37;17.03;;;;;;;13.33;100.00;101949.25;4966940;28;20202;-77
2023/09/27 05:34:46;;;;;;;19.40;16.30;;;;;;;13.70;100.00;101979.72;4967987;28;20216;-77
2023/09/27 05:37:11;;;;;;;18.87;16.83;;;;;;;13.73;100.00;101987.41;4968649;28;20735;-77
2023/09/27 05:39:36;;;;;;;20.20;17.67;;;;;;;13.32;100.00;101858.66;4968459;28;20186;-77
2023/09/27 05:42:02;;;;;;;20.13;16.73;;;;;;;13.51;100.00;101911.09;4966931;28;20261;-77
2023/09/27 05:44:27;;;;;;;21.80;17.90;;;;;;;13.39;100.00;101893.75;4966324;28;20253;-77
2023/09/27 05:46:55;;;;;;;21.47;17.17;;;;;;;13.25;100.00;101844.31;4968643;28;20194;-77
2023/09/27 05:49:20;;;;;;;20.93;18.13;;;;;;;13.61;100.00;101916.16;4968300;28;20210;-77
2023/09/27 05:51:46;;;;;;;18.30;16.13;;;;;;;13.54;100.00;101916.09;4980547;28;20484;-77
2023/09/27 05:54:11;;;;;;;18.10;16.20;;;;;;;13.85;100.00;101932.97;4968295;28;20198;-77
2023/09/27 05:56:37;;;;;;;17.57;15.70;;;;;;;13.68;100.00;101879.34;4965747;28;20182;-77
2023/09/27 05:59:08;;;;;;;19.30;15.70;;;;;;;14.68;100.00;102013.16;4967288;28;20265;-77
2023/09/27 06:01:34;;;;;;;21.17;18.27;;;;;;;14.76;100.00;102049.19;4965715;28;20501;-77
2023/09/27 06:04:00;;;;;;;19.23;16.90;;;;;;;13.90;100.00;101925.13;4983470;28;20476;-77
2023/09/27 06:06:25;;;;;;;19.00;16.13;;;;;;;13.90;100.00;101935.94;4966357;28;20496;-76
2023/09/27 06:08:51;;;;;;;18.17;15.80;;;;;;;14.79;100.00;102041.50;4966963;28;20206;-77
2023/09/27 06:11:16;;;;;;;17.40;15.60;;;;;;;14.14;100.00;101926.56;4969532;28;20194;-77
2023/09/27 06:13:42;;;;;;;19.87;17.30;;;;;;;14.72;100.00;102023.56;4965923;28;20217;-76
2023/09/27 06:16:16;;;;;;;18.00;15.47;;;;;;;15.10;100.00;102029.41;4982731;28;20185;-76
2023/09/27 06:18:42;;;;;;;16.20;14.33;;;;;;;14.66;100.00;101949.59;4962944;28;20179;-77
2023/09/27 06:21:08;;;;;;;17.60;15.70;;;;;;;14.16;100.00;101873.25;4967068;28;20468;-76
2023/09/27 06:23:33;;;;;;;17.33;14.70;;;;;;;15.09;100.00;101995.31;4965684;28;20198;-76
2023/09/27 06:25:58;;;;;;;17.73;14.17;;;;;;;15.05;100.00;101994.06;4964671;28;20752;-76
2023/09/27 06:28:24;;;;;;;15.40;13.77;;;;;;;15.12;100.00;101984.94;4963552;28;20247;-77
2023/09/27 06:30:49;;;;;;;17.27;14.90;;;;;;;14.53;100.00;101888.25;4964490;28;20186;-76
2023/09/27 06:33:15;;;;;;;16.73;14.30;;;;;;;14.71;100.00;101949.84;4964168;28;20206;-77
2023/09/27 06:35:42;;;;;;;18.97;15.90;;;;;;;14.53;100.00;101917.97;4966576;28;20197;-76
2023/09/27 06:38:07;;;;;;;18.50;15.27;;;;;;;14.84;100.00;101958.03;4966157;28;20198;-77
2023/09/27 06:40:33;;;;;;;16.17;14.43;;;;;;;15.25;100.00;102019.31;4967200;28;20446;-76
2023/09/27 06:42:59;;;;;;;17.63;15.20;;;;;;;14.96;100.00;101952.88;4966273;28;20260;-76
2023/09/27 06:45:25;;;;;;;15.67;14.00;;;;;;;14.85;100.00;101935.38;4966986;28;20182;-76
2023/09/27 06:47:51;;;;;;;16.80;14.43;;;;;;;15.14;100.00;101988.28;4966879;28;20438;-77
2023/09/27 06:50:17;;;;;;;17.20;14.40;;;;;;;15.00;100.00;101951.44;4966382;28;20480;-77
2023/09/27 06:52:45;;;;;;;17.20;15.27;;;;;;;15.29;100.00;102000.81;4964027;28;20261;-77
2023/09/27 06:55:11;;;;;;;19.13;15.90;;;;;;;14.52;100.00;101869.53;4971908;28;20437;-77
2023/09/27 06:57:40;;;;;;;15.97;14.13;;;;;;;15.36;100.00;101989.00;4967471;28;20850;-77
2023/09/27 07:00:18;;;;;;;17.70;15.17;;;;;;;14.95;100.00;101948.50;4969730;28;20434;-77
2023/09/27 07:02:46;;;;;;;15.13;13.17;;;;;;;14.72;100.00;101924.47;4970049;28;20463;-77
2023/09/27 07:05:11;;;;;;;19.83;17.03;;;;;;;14.53;100.00;101920.66;4969407;28;21003;-77
2023/09/27 07:07:37;;;;;;;17.57;15.67;;;;;;;14.69;100.00;101952.75;4964224;28;20451;-77
2023/09/27 07:10:03;;;;;;;21.20;18.07;;;;;;;14.36;100.00;101901.22;4968102;28;20206;-77
2023/09/27 07:12:30;;;;;;;21.60;18.40;;;;;;;14.69;100.00;101962.69;4970544;28;20234;-77
2023/09/27 07:14:55;;;;;;;18.83;16.87;;;;;;;14.44;100.00;101900.22;4969603;28;20473;-77
2023/09/27 07:17:21;;;;;;;20.20;17.90;;;;;;;14.89;100.00;101911.47;4970350;28;20466;-77
2023/09/27 07:19:51;;;;;;;22.70;18.90;;;;;;;13.86;100.00;101756.66;4970864;28;20186;-77
2023/09/27 07:22:16;;;;;;;18.60;16.43;;;;;;;14.55;100.00;101821.41;4970329;28;20461;-77
2023/09/27 07:24:42;;;;;;;18.57;16.37;;;;;;;14.42;100.00;101800.53;4969335;28;20441;-77
2023/09/27 07:27:08;;;;;;;20.83;18.20;;;;;;;15.14;100.00;101950.47;4971379;28;20673;-76
2023/09/27 07:29:33;;;;;;;19.47;17.47;;;;;;;14.01;100.00;101809.44;4969636;28;20217;-77
2023/09/27 07:31:59;;;;;;;22.13;18.53;;;;;;;15.10;100.00;101951.06;4970572;28;20222;-77
2023/09/27 07:34:24;;;;;;;22.30;19.47;;;;;;;14.74;100.00;101956.72;4982602;28;20189;-77
2023/09/27 07:36:51;;;;;;;19.30;17.00;;;;;;;15.03;100.00;101958.31;4970409;28;20182;-77
2023/09/27 07:39:17;;;;;;;17.27;15.43;;;;;;;14.59;100.00;101886.63;4984703;28;20174;-77
2023/09/27 07:41:44;;;;;;;16.77;14.40;;;;;;;14.80;100.00;101867.59;4970325;28;20472;-76
2023/09/27 07:44:10;;;;;;;17.50;15.30;;;;;;;15.11;100.00;101969.78;4968723;28;20452;-76
2023/09/27 07:46:36;;;;;;;21.80;17.47;;;;;;;14.89;100.00;101927.69;4969215;28;20433;-76
2023/09/27 07:49:01;;;;;;;21.80;17.87;;;;;;;14.13;100.00;101836.72;4983252;28;20226;-76
2023/09/27 07:51:27;;;;;;;21.90;18.70;;;;;;;15.16;100.00;101982.69;4970175;28;20429;-78
2023/09/27 07:53:54;;;;;;;20.03;16.47;;;;;;;14.94;100.00;101927.94;4970196;28;20194;-76
2023/09/27 07:56:21;;;;;;;19.70;17.30;;;;;;;15.52;100.00;102012.13;4969832;28;20194;-77
2023/09/27 07:58:51;;;;;;;22.23;18.93;;;;;;;15.46;100.00;102053.50;4985158;28;20565;-77
2023/09/27 08:01:20;;;;;;;18.20;16.17;;;;;;;15.70;100.00;102025.13;4968902;28;20453;-78
2023/09/27 08:03:52;;;;;;;16.00;14.07;;;;;;;15.48;100.00;101997.38;4968089;28;20995;-76
2023/09/27 08:06:18;;;;;;;17.53;15.00;;;;;;;15.19;100.00;101963.38;4969710;28;20626;-76
2023/09/27 08:08:45;;;;;;;22.83;18.00;;;;;;;15.59;100.00;102066.25;4982340;28;20540;-76
2023/09/27 08:11:13;;;;;;;18.33;16.37;;;;;;;15.08;100.00;101974.75;4970797;28;20446;-77
2023/09/27 08:13:39;;;;;;;22.63;18.80;;;;;;;15.67;100.00;102090.41;4970546;28;20461;-76
2023/09/27 08:16:07;;;;;;;21.50;18.83;;;;;;;15.40;100.00;102042.69;4982346;28;20524;-78
2023/09/27 08:18:37;;;;;;;22.57;18.70;;;;;;;15.79;100.00;102085.28;4968565;28;20433;-78
2023/09/27 08:21:03;;;;;;;23.60;21.10;;;;;;;15.55;100.00;102065.81;4969268;28;20813;-76
2023/09/27 08:23:29;;;;;;;21.83;19.43;;;;;;;15.82;100.00;102068.63;4967259;28;20464;-78
2023/09/27 08:25:55;;;;;;;23.77;19.80;;;;;;;15.93;100.00;102078.88;4969244;28;20453;-77
2023/09/27 08:28:21;;;;;;;24.00;20.10;;;;;;;14.77;100.00;101897.72;4968310;28;20673;-77
2023/09/27 08:30:49;;;;;;;20.07;17.20;;;;;;;16.26;100.00;102080.84;4967861;28;20449;-76
2023/09/27 08:33:15;;;;;;;18.67;16.40;;;;;;;15.62;100.00;101940.59;4966970;28;20233;-77
2023/09/27 08:35:40;;;;;;;23.17;19.93;;;;;;;16.06;100.00;102017.72;4970926;28;20461;-77
2023/09/27 08:38:06;;;;;;;24.87;19.97;;;;;;;15.93;100.00;102027.47;4968534;28;20186;-76
2023/09/27 08:40:32;;;;;;;27.03;22.40;;;;;;;16.17;100.00;102052.25;4970549;28;20194;-76
2023/09/27 08:42:59;;;;;;;26.67;21.23;;;;;;;16.78;100.00;102192.16;4970049;28;20638;-77
2023/09/27 08:45:26;;;;;;;28.10;20.77;;;;;;;16.70;100.00;102161.47;4984607;28;20182;-77
2023/09/27 08:47:52;;;;;;;26.33;18.67;;;;;;;16.48;100.00;102130.19;4969003;28;20925;-76
2023/09/27 08:50:19;;;;;;;26.57;21.40;;;;;;;16.65;100.00;102184.81;4970876;28;20564;-77
2023/09/27 08:52:48;;;;;;;20.90;18.50;;;;;;;17.44;100.00;102319.59;4968326;28;20497;-76
2023/09/27 08:55:15;;;;;;;21.33;17.53;;;;;;;17.56;100.00;102352.34;4969424;28;20465;-77
2023/09/27 08:57:49;;;;;;;20.73;16.63;;;;;;;17.46;100.00;102360.91;4968389;28;20552;-76
2023/09/27 09:00:20;;;;;;;43.60;18.10;;;;;;;17.60;100.00;102402.47;4967701;28;20489;-76
2023/09/27 09:02:52;;;;;;;23.80;17.37;;;;;;;17.35;100.00;102372.38;4968453;28;20477;-77
2023/09/27 09:05:18;;;;;;;20.43;17.10;;;;;;;17.73;100.00;102431.47;4966826;28;20445;-77
2023/09/27 09:07:44;;;;;;;16.73;12.70;;;;;;;17.37;100.00;102354.88;4970900;28;21401;-77
2023/09/27 09:10:14;;;;;;;13.60;11.73;;;;;;;17.19;100.00;102403.44;4970327;28;20465;-77
2023/09/27 09:12:41;;;;;;;14.80;11.60;;;;;;;17.40;100.00;102437.69;4968162;28;20458;-77
2023/09/27 09:15:26;;;;;;;12.80;10.47;;;;;;;17.32;100.00;102419.72;4984701;28;20843;-77
2023/09/27 09:17:56;;;;;;;12.63;10.60;;;;;;;17.68;100.00;102466.56;4969151;28;20434;-77
2023/09/27 09:22:50;;;;;;;14.13;11.03;;;;;;;17.34;100.00;102354.44;4969859;28;20456;-77
2023/09/27 09:25:15;;;;;;;12.33;9.60;;;;;;;17.25;100.00;102334.00;4968785;28;20194;-77
2023/09/27 09:27:41;;;;;;;13.57;11.70;;;;;;;17.45;100.00;102317.75;4969675;28;20450;-77
2023/09/27 09:30:09;;;;;;;13.73;11.63;;;;;;;17.68;100.00;102410.41;4970840;28;20228;-77
2023/09/27 09:32:49;;;;;;;22.30;17.77;;;;;;;18.53;100.00;102551.84;4968601;28;20661;-77
2023/09/27 09:35:30;;;;;;;24.80;17.40;;;;;;;17.98;100.00;102548.47;4985088;28;20445;-76
2023/09/27 09:37:56;;;;;;;15.60;12.43;;;;;;;18.70;100.00;102699.00;4969259;28;20784;-76
2023/09/27 09:40:22;;;;;;;20.97;17.27;;;;;;;18.45;100.00;102744.94;4970003;28;20868;-77
2023/09/27 09:42:48;;;;;;;16.90;12.25;;;;;;;18.32;100.00;102753.91;4968893;28;20454;-76
2023/09/27 09:45:14;;;;;;;19.83;15.40;;;;;;;18.62;100.00;102876.69;4967713;28;20402;-76
2023/09/27 09:47:44;;;;;;;20.67;13.50;;;;;;;18.63;100.00;102877.53;4968480;28;20938;-77
2023/09/27 09:50:19;;;;;;;18.13;13.10;;;;;;;18.04;100.00;102790.13;4970342;28;20556;-77
2023/09/27 09:52:53;;;;;;;20.97;13.60;;;;;;;18.77;100.00;102911.91;4964557;28;21004;-76
2023/09/27 09:55:20;;;;;;;16.77;10.77;;;;;;;18.15;100.00;102810.47;4967244;28;20444;-77
2023/09/27 09:57:47;;;;;;;12.43;9.77;;;;;;;18.24;100.00;102824.69;4966901;28;20528;-77
2023/09/27 10:00:17;;;;;;;17.97;13.60;;;;;;;18.22;100.00;102838.47;4967473;28;20956;-77
2023/09/27 10:02:51;;;;;;;16.20;13.20;;;;;;;18.65;100.00;102898.03;4971429;28;20520;-77
2023/09/27 10:05:21;;;;;;;16.20;12.27;;;;;;;19.02;100.00;102924.97;4964190;28;20469;-77
2023/09/27 10:07:47;;;;;;;20.17;14.20;;;;;;;18.18;100.00;102809.22;4968570;28;20446;-77
2023/09/27 10:10:16;;;;;;;19.27;14.77;;;;;;;18.10;100.00;102814.81;4969126;28;20520;-76
2023/09/27 10:12:46;;;;;;;15.47;12.33;;;;;;;17.96;100.00;102782.16;4968226;28;20461;-76
2023/09/27 10:15:16;;;;;;;19.07;13.37;;;;;;;18.13;100.00;102798.13;4966466;28;20434;-76
2023/09/27 10:17:41;;;;;;;18.63;13.23;;;;;;;18.11;100.00;102775.75;4965758;28;20476;-76
2023/09/27 10:20:13;;;;;;;17.67;13.43;;;;;;;17.86;100.00;102700.25;4967607;28;20437;-76
2023/09/27 10:22:43;;;;;;;15.83;11.83;;;;;;;17.90;100.00;102654.53;4962847;28;20206;-77
2023/09/27 10:25:25;;;;;;;15.10;11.47;;;;;;;18.83;100.00;102817.81;4965534;28;20593;-77
2023/09/27 10:28:11;;;;;;;16.57;11.77;;;;;;;18.37;100.00;102715.25;4981189;28;20451;-76
2023/09/27 10:30:40;;;;;;;14.30;11.47;;;;;;;19.04;100.00;102786.91;4981140;28;20473;-77
2023/09/27 10:33:14;;;;;;;19.10;11.67;;;;;;;18.95;100.00;102806.16;4963655;28;20470;-76
2023/09/27 10:35:42;;;;;;;14.70;11.30;;;;;;;18.26;100.00;102662.38;4966930;28;20556;-77
2023/09/27 10:38:10;;;;;;;13.10;9.80;;;;;;;19.26;100.00;102799.25;4969549;28;20449;-79
2023/09/27 10:40:45;;;;;;;17.47;14.27;;;;;;;19.11;100.00;102826.66;4967712;28;20476;-76
2023/09/27 10:43:31;;;;;;;19.50;14.33;;;;;;;19.11;100.00;102826.66;4965310;28;20576;-77
2023/09/27 10:45:56;;;;;;;14.70;10.85;;;;;;;18.69;100.00;102716.38;4967274;28;20955;-77
2023/09/27 10:48:22;;;;;;;16.60;11.40;;;;;;;19.13;100.00;102783.78;4970256;28;20417;-75
2023/09/27 10:50:57;;;;;;;15.00;11.50;;;;;;;19.12;100.00;102762.22;4965012;28;20264;-79
2023/09/27 10:53:23;;;;;;;12.57;9.43;;;;;;;19.35;100.00;102783.56;4965834;28;20469;-76
2023/09/27 10:55:49;;;;;;;10.37;7.97;;;;;;;19.31;100.00;102746.94;4966259;28;20438;-77
2023/09/27 10:58:17;;;;;;;10.27;7.47;;;;;;;19.52;100.00;102756.75;4963692;28;20565;-77
2023/09/27 11:01:02;;;;;;;12.80;9.37;;;;;;;19.48;100.00;102731.00;4968216;28;20178;-77
2023/09/27 11:03:29;;;;;;;14.83;10.90;;;;;;;18.82;100.00;102593.22;4966832;28;20462;-77